To NAV CANADA Home Page Login to a new session Search on AWWS site Feedback and Comments Disclaimer Vers la page française équivalente Tips FAQ What's new on the site To the Forecasts and Observations / NOTAM section To "File a Flight Plan" website Publications and other links Update of the User's profile FIC Telephone Numbers My Weather Data Folder Route Weather Data Regional Weather Data Local Weather Data To the Forecasts and Observations / NOTAM section
Request Generated 03/05/2015 at 11:51:35 UTC . Weather information available at that time is displayed.

METAR/TAF

WINDSOR/ON    

METAR CYQG 051100Z 03011KT 15SM FEW160 OVC240 M13/M18 A3033 RMK
AC2CI6 PRESRR SLP282=
METAR CYQG 051000Z 36008KT 15SM BKN170 BKN240 M12/M18 A3031 RMK
AC6CI1 SLP274=
METAR CYQG 050900Z 02011KT 15SM OVC220 M11/M18 A3028 RMK CI8 SLP265=

TAF CYQG 051138Z 0512/0612 03010KT P6SM BKN180
BECMG 0513/0515 06005KT
FM051600 VRB03KT P6SM BKN025 TEMPO 0516/0602 OVC020
BECMG 0518/0520 21007KT
FM060200 21007KT P6SM SCT030
RMK NXT FCST BY 051800Z=
Your time UTC time
Weather data provided by Environment Canada and NAV CANADA